Time;durP1;ratioP1;P1;durP2;ratioP2;P2;SDS_P1;SDS_P2;PMS_P1;PMS_P2;Temp;Humidity;BMP_temperature;BMP_pressure;BME280_temperature;BME280_humidity;BME280_pressure;Samples;Min_cycle;Max_cycle;Signal;HPM_P1;HPM_P2
2022/09/15 00:01:25;;;;;;;8.87;4.37;;;13.90;99.90;;;;;;5046867;28;20678;-63
2022/09/15 00:03:51;;;;;;;9.70;4.63;;;13.80;99.90;;;;;;5041713;28;20211;-62
2022/09/15 00:06:17;;;;;;;13.33;5.13;;;13.80;99.90;;;;;;5052320;28;20218;-62
2022/09/15 00:08:43;;;;;;;7.27;4.73;;;13.80;99.90;;;;;;5046845;28;20681;-62
2022/09/15 00:11:14;;;;;;;9.33;4.27;;;13.80;99.90;;;;;;5042013;28;20207;-62
2022/09/15 00:13:40;;;;;;;9.43;4.50;;;13.70;99.90;;;;;;5026045;28;20214;-62
2022/09/15 00:16:07;;;;;;;10.63;4.60;;;13.80;99.90;;;;;;5026199;28;20187;-63
2022/09/15 00:18:33;;;;;;;11.73;4.07;;;13.70;99.90;;;;;;5039469;28;20211;-62
2022/09/15 00:21:03;;;;;;;10.70;4.60;;;13.80;99.90;;;;;;5031864;28;20199;-62
2022/09/15 00:23:29;;;;;;;7.03;4.57;;;13.70;99.90;;;;;;5045132;28;20207;-62
2022/09/15 00:25:54;;;;;;;10.53;4.27;;;13.70;99.90;;;;;;5042564;28;20229;-62
2022/09/15 00:28:21;;;;;;;8.23;3.90;;;13.70;99.90;;;;;;5049806;28;20627;-62
2022/09/15 00:30:49;;;;;;;9.83;4.13;;;13.70;99.90;;;;;;5041307;28;20214;-62
2022/09/15 00:33:16;;;;;;;9.17;3.93;;;13.70;99.90;;;;;;5046867;28;20282;-62
2022/09/15 00:35:43;;;;;;;9.10;3.87;;;13.60;99.90;;;;;;5033589;28;20627;-62
2022/09/15 00:38:11;;;;;;;7.53;3.93;;;13.60;99.90;;;;;;5046990;28;20198;-63
2022/09/15 00:40:46;;;;;;;6.23;3.97;;;13.60;99.90;;;;;;5030479;28;20203;-64
2022/09/15 00:43:14;;;;;;;11.90;4.30;;;13.50;99.90;;;;;;5045775;28;20199;-63
2022/09/15 00:45:39;;;;;;;3.80;3.40;;;13.50;99.90;;;;;;5041161;28;20282;-63
2022/09/15 00:48:08;;;;;;;6.80;4.33;;;13.40;99.90;;;;;;5056715;28;20285;-62
2022/09/15 00:50:36;;;;;;;8.13;4.40;;;13.30;99.90;;;;;;5034459;28;20242;-64
2022/09/15 00:53:04;;;;;;;6.27;4.37;;;13.30;99.90;;;;;;5045511;28;20217;-64
2022/09/15 00:55:38;;;;;;;9.17;3.83;;;13.30;99.90;;;;;;5039318;28;20289;-64
2022/09/15 00:58:10;;;;;;;11.87;4.17;;;13.30;99.90;;;;;;5032505;28;20191;-64
2022/09/15 01:00:38;;;;;;;7.53;4.43;;;13.30;99.90;;;;;;5028913;28;20190;-64
2022/09/15 01:03:03;;;;;;;7.73;3.53;;;13.30;99.90;;;;;;5035879;28;20286;-64
2022/09/15 01:05:34;;;;;;;9.43;4.50;;;13.30;99.90;;;;;;5015473;28;20338;-64
2022/09/15 01:08:06;;;;;;;6.70;4.60;;;13.30;99.90;;;;;;5026929;28;20658;-64
2022/09/15 01:10:34;;;;;;;4.63;3.83;;;13.30;99.90;;;;;;5025512;28;20226;-64
2022/09/15 01:13:04;;;;;;;7.00;4.43;;;13.30;99.90;;;;;;5025584;28;20195;-64
2022/09/15 01:16:00;;;;;;;9.20;4.30;;;13.20;99.90;;;;;;5026246;28;20220;-64
2022/09/15 01:18:48;;;;;;;5.90;4.30;;;13.20;99.90;;;;;;5020337;28;20177;-62
2022/09/15 01:21:34;;;;;;;7.50;4.03;;;13.20;99.90;;;;;;5023735;28;20232;-63
2022/09/15 01:24:36;;;;;;;8.57;4.83;;;13.20;99.90;;;;;;5021079;28;20287;-63
2022/09/15 01:27:46;;;;;;;9.10;4.30;;;13.20;99.90;;;;;;5027475;28;20723;-63
2022/09/15 01:30:18;;;;;;;8.10;4.17;;;13.10;99.90;;;;;;5022040;28;20222;-63
2022/09/15 01:33:19;;;;;;;11.13;4.20;;;13.10;99.90;;;;;;5038099;28;20653;-63
2022/09/15 01:35:53;;;;;;;8.30;4.57;;;13.10;99.90;;;;;;5027272;28;20187;-63
2022/09/15 01:38:50;;;;;;;4.60;4.10;;;13.10;99.90;;;;;;5018883;28;20184;-62
2022/09/15 01:41:24;;;;;;;11.00;4.30;;;13.00;99.90;;;;;;5015218;28;20188;-63
2022/09/15 01:44:04;;;;;;;4.00;3.70;;;13.00;99.90;;;;;;5010912;28;20207;-63
2022/09/15 01:46:34;;;;;;;8.13;3.97;;;13.00;99.90;;;;;;5027116;28;20187;-63
2022/09/15 01:49:02;;;;;;;8.50;4.63;;;13.00;99.90;;;;;;5030184;28;20563;-62
2022/09/15 01:51:31;;;;;;;9.43;4.57;;;13.00;99.90;;;;;;5012558;28;20227;-62
2022/09/15 01:54:00;;;;;;;6.67;3.47;;;13.00;99.90;;;;;;5026143;28;20607;-63
2022/09/15 01:56:25;;;;;;;8.53;3.87;;;13.00;99.90;;;;;;5016830;28;20688;-63
2022/09/15 01:58:51;;;;;;;7.97;4.33;;;13.00;99.90;;;;;;5033097;28;20208;-63
2022/09/15 02:01:26;;;;;;;9.37;3.87;;;13.00;99.90;;;;;;5027335;28;20205;-63
2022/09/15 02:03:59;;;;;;;8.50;3.77;;;13.00;99.90;;;;;;5035283;28;20278;-63
2022/09/15 02:06:52;;;;;;;5.70;4.07;;;13.00;99.90;;;;;;5026969;28;20673;-63
2022/09/15 02:09:23;;;;;;;6.70;4.67;;;13.10;99.90;;;;;;5023291;28;20206;-63
2022/09/15 02:12:18;;;;;;;9.40;4.13;;;13.10;99.90;;;;;;5020274;28;20193;-62
2022/09/15 02:14:58;;;;;;;10.50;4.23;;;13.10;99.90;;;;;;5008731;28;20265;-63
2022/09/15 02:17:28;;;;;;;12.03;4.60;;;13.10;99.90;;;;;;5028011;28;20201;-62
2022/09/15 02:20:01;;;;;;;6.83;3.70;;;13.10;99.90;;;;;;5026694;28;20214;-63
2022/09/15 02:22:30;;;;;;;5.80;3.67;;;13.00;99.90;;;;;;5025639;28;20190;-63
2022/09/15 02:25:11;;;;;;;7.03;4.63;;;12.90;99.90;;;;;;5032761;28;20205;-63
2022/09/15 02:27:43;;;;;;;10.83;4.17;;;12.90;99.90;;;;;;5026183;28;20191;-62
2022/09/15 02:30:11;;;;;;;9.33;5.17;;;12.90;99.90;;;;;;5014799;28;20248;-63
2022/09/15 02:32:46;;;;;;;9.47;5.00;;;12.80;99.90;;;;;;5042061;28;20669;-64
2022/09/15 02:35:13;;;;;;;8.63;4.43;;;12.80;99.90;;;;;;5015302;28;20232;-62
2022/09/15 02:37:38;;;;;;;9.33;4.63;;;12.80;99.90;;;;;;5044681;28;20548;-62
2022/09/15 02:40:05;;;;;;;6.80;4.90;;;12.70;99.90;;;;;;5030013;28;20323;-62
2022/09/15 02:42:31;;;;;;;7.70;5.33;;;12.70;99.90;;;;;;5034329;28;20204;-63
2022/09/15 02:44:58;;;;;;;9.63;5.33;;;12.60;99.90;;;;;;5031727;28;20211;-63
2022/09/15 02:47:24;;;;;;;14.67;5.40;;;12.60;99.90;;;;;;5030830;28;20253;-63
2022/09/15 02:49:50;;;;;;;10.80;5.17;;;12.60;99.90;;;;;;5029326;28;20602;-63
2022/09/15 02:52:16;;;;;;;6.10;5.00;;;12.60;99.90;;;;;;5028341;28;20564;-63
2022/09/15 02:54:41;;;;;;;13.33;5.73;;;12.50;99.90;;;;;;5033239;28;20773;-63
2022/09/15 02:57:07;;;;;;;14.23;5.60;;;12.50;99.90;;;;;;5028779;28;20231;-63
2022/09/15 03:02:19;;;;;;;10.57;5.90;;;12.50;99.90;;;;;;5019475;28;20776;-63
2022/09/15 03:04:45;;;;;;;6.93;5.53;;;12.40;99.90;;;;;;5029012;28;20209;-63
2022/09/15 03:07:10;;;;;;;7.97;4.77;;;12.40;99.90;;;;;;5037180;28;20862;-63
2022/09/15 03:09:36;;;;;;;11.83;5.07;;;12.30;99.90;;;;;;5030680;28;20859;-64
2022/09/15 03:12:02;;;;;;;8.50;5.27;;;12.30;99.90;;;;;;5032710;28;20232;-63
2022/09/15 03:14:28;;;;;;;11.40;5.87;;;12.30;99.90;;;;;;5035698;28;20213;-63
2022/09/15 03:16:54;;;;;;;9.13;5.40;;;12.30;99.90;;;;;;5010280;28;20270;-63
2022/09/15 03:19:19;;;;;;;9.30;5.37;;;12.30;99.90;;;;;;5029114;28;21060;-63
2022/09/15 03:21:44;;;;;;;9.20;5.27;;;12.30;99.90;;;;;;5020667;28;20183;-63
2022/09/15 03:24:10;;;;;;;10.13;5.70;;;12.30;99.90;;;;;;5037366;28;20674;-63
2022/09/15 03:26:35;;;;;;;6.33;4.63;;;12.20;99.90;;;;;;5026590;28;20280;-63
2022/09/15 03:29:01;;;;;;;10.27;5.27;;;12.20;99.90;;;;;;5039288;28;20202;-63
2022/09/15 03:31:26;;;;;;;8.93;5.43;;;12.20;99.90;;;;;;5010530;28;20216;-62
2022/09/15 03:33:54;;;;;;;8.33;4.63;;;12.20;99.90;;;;;;5032246;28;20191;-63
2022/09/15 03:36:20;;;;;;;10.93;5.80;;;12.20;99.90;;;;;;5025419;28;20185;-63
2022/09/15 03:38:45;;;;;;;9.77;6.53;;;12.20;99.90;;;;;;5029087;28;20191;-63
2022/09/15 03:41:11;;;;;;;10.27;5.53;;;12.10;99.90;;;;;;5016995;28;20242;-63
2022/09/15 03:43:37;;;;;;;8.67;5.13;;;12.20;99.90;;;;;;5031943;28;20206;-63
2022/09/15 03:46:05;;;;;;;8.83;5.37;;;12.20;99.90;;;;;;5039335;28;20227;-63
2022/09/15 03:48:33;;;;;;;8.77;5.53;;;12.20;99.90;;;;;;5033071;28;20665;-62
2022/09/15 03:50:59;;;;;;;9.77;5.90;;;12.20;99.90;;;;;;5023577;28;20238;-62
2022/09/15 03:53:24;;;;;;;12.50;5.63;;;12.20;99.90;;;;;;5025619;28;20658;-63
2022/09/15 03:55:50;;;;;;;7.83;5.53;;;12.20;99.90;;;;;;5024771;28;20311;-63
2022/09/15 03:58:17;;;;;;;11.40;5.83;;;12.10;99.90;;;;;;5030793;28;20209;-62
2022/09/15 04:00:43;;;;;;;8.53;5.60;;;12.10;99.90;;;;;;5025098;28;20216;-63
2022/09/15 04:03:08;;;;;;;7.97;4.87;;;12.10;99.90;;;;;;5043358;28;20195;-63
2022/09/15 04:05:34;;;;;;;7.77;5.23;;;12.10;99.90;;;;;;5023344;28;20426;-62
2022/09/15 04:08:00;;;;;;;11.23;5.03;;;12.10;99.90;;;;;;5029187;28;20289;-63
2022/09/15 04:10:26;;;;;;;9.97;4.93;;;12.10;99.90;;;;;;5015365;28;20595;-64
2022/09/15 04:12:52;;;;;;;7.90;5.27;;;12.10;99.90;;;;;;5029110;28;20200;-64
2022/09/15 04:15:21;;;;;;;9.90;5.13;;;12.10;99.90;;;;;;5024711;28;20231;-64
2022/09/15 04:17:46;;;;;;;6.87;5.80;;;12.10;99.90;;;;;;5032491;28;20815;-63
2022/09/15 04:20:13;;;;;;;8.40;5.70;;;12.10;99.90;;;;;;5030582;28;20204;-64
2022/09/15 04:22:38;;;;;;;9.43;5.60;;;12.10;99.90;;;;;;5027458;28;20211;-63
2022/09/15 04:25:04;;;;;;;7.10;5.50;;;12.10;99.90;;;;;;5031132;28;20753;-64
2022/09/15 04:27:33;;;;;;;8.17;5.40;;;12.10;99.90;;;;;;5024163;28;20244;-62
2022/09/15 04:29:58;;;;;;;6.67;5.13;;;12.10;99.90;;;;;;5031141;28;20223;-62
2022/09/15 04:32:24;;;;;;;10.57;5.20;;;12.10;99.90;;;;;;5025130;28;20523;-63
2022/09/15 04:34:49;;;;;;;11.93;5.67;;;12.10;99.90;;;;;;5023778;28;20200;-63
2022/09/15 04:37:15;;;;;;;10.70;5.37;;;12.00;99.90;;;;;;5028057;28;20238;-62
2022/09/15 04:39:41;;;;;;;6.10;4.90;;;12.00;99.90;;;;;;5031546;28;20203;-63
2022/09/15 04:42:06;;;;;;;13.17;6.07;;;12.00;99.90;;;;;;5028056;28;20187;-63
2022/09/15 04:44:32;;;;;;;7.20;5.30;;;12.00;99.90;;;;;;5039798;28;20211;-64
2022/09/15 04:46:58;;;;;;;17.33;6.63;;;12.00;99.90;;;;;;5028150;28;20188;-62
2022/09/15 04:49:23;;;;;;;8.77;6.13;;;12.00;99.90;;;;;;5029167;28;20560;-63
2022/09/15 04:51:51;;;;;;;9.27;6.17;;;12.00;99.90;;;;;;5017653;28;20312;-63
2022/09/15 04:54:17;;;;;;;8.10;5.13;;;12.00;99.90;;;;;;5020317;28;20206;-63
2022/09/15 04:56:43;;;;;;;8.17;6.30;;;12.00;99.90;;;;;;5018677;28;20186;-64
2022/09/15 04:59:13;;;;;;;12.53;7.23;;;12.00;99.90;;;;;;5019402;28;20191;-64
2022/09/15 05:01:39;;;;;;;13.03;6.40;;;12.10;99.90;;;;;;5016649;28;20266;-64
2022/09/15 05:04:04;;;;;;;12.13;6.77;;;12.10;99.90;;;;;;5019082;28;20706;-62
2022/09/15 05:06:30;;;;;;;15.03;5.80;;;12.20;99.90;;;;;;5014438;28;20198;-62
2022/09/15 05:08:57;;;;;;;7.83;5.37;;;12.20;99.90;;;;;;5036014;28;20202;-62
2022/09/15 05:11:23;;;;;;;12.60;6.37;;;12.20;99.90;;;;;;5025192;28;20761;-64
2022/09/15 05:13:49;;;;;;;7.30;5.73;;;12.20;99.90;;;;;;5021228;28;20187;-63
2022/09/15 05:16:17;;;;;;;8.50;5.93;;;12.20;99.90;;;;;;5015532;28;20611;-63
2022/09/15 05:18:44;;;;;;;9.10;5.20;;;12.20;99.90;;;;;;5024603;28;20943;-63
2022/09/15 05:21:12;;;;;;;9.00;6.23;;;12.30;99.90;;;;;;5027061;28;20199;-64
2022/09/15 05:23:37;;;;;;;10.60;6.20;;;12.30;99.90;;;;;;5030257;28;20198;-63
2022/09/15 05:26:05;;;;;;;9.17;5.37;;;12.30;99.90;;;;;;5027681;28;20279;-64
2022/09/15 05:28:33;;;;;;;11.33;5.67;;;12.40;99.90;;;;;;5039680;28;20297;-62
2022/09/15 05:30:58;;;;;;;8.97;5.33;;;12.40;99.90;;;;;;5022445;28;20589;-64
2022/09/15 05:33:24;;;;;;;11.90;5.63;;;12.40;99.90;;;;;;5035381;28;20199;-63
2022/09/15 05:35:56;;;;;;;10.03;5.43;;;12.40;99.90;;;;;;5030094;28;20288;-64
2022/09/15 05:38:22;;;;;;;6.93;4.77;;;12.50;99.90;;;;;;5028267;28;20668;-64
2022/09/15 05:40:48;;;;;;;10.17;4.63;;;12.60;99.90;;;;;;5028846;28;20611;-64
2022/09/15 05:43:14;;;;;;;4.90;4.20;;;12.60;99.90;;;;;;5040933;28;20205;-64
2022/09/15 05:45:41;;;;;;;13.53;5.20;;;12.60;99.90;;;;;;5031373;28;20204;-64
2022/09/15 05:48:07;;;;;;;13.27;4.43;;;12.70;99.90;;;;;;5030093;28;20209;-64
2022/09/15 05:50:33;;;;;;;6.80;4.27;;;12.70;99.90;;;;;;5028941;28;20232;-63
2022/09/15 05:52:58;;;;;;;6.73;4.57;;;12.80;99.90;;;;;;5020495;28;20534;-65
2022/09/15 05:55:24;;;;;;;11.23;4.97;;;12.90;99.90;;;;;;5033596;28;20200;-64
2022/09/15 05:57:49;;;;;;;10.53;4.70;;;12.90;99.90;;;;;;5027946;28;20255;-65
2022/09/15 06:00:15;;;;;;;7.23;4.80;;;12.90;99.90;;;;;;5034825;28;20781;-65
2022/09/15 06:02:41;;;;;;;10.43;4.10;;;13.00;99.90;;;;;;5028960;28;20201;-65
2022/09/15 06:05:06;;;;;;;7.67;4.57;;;13.00;99.90;;;;;;5032125;28;20225;-65
2022/09/15 06:07:32;;;;;;;8.67;4.67;;;13.10;99.90;;;;;;5028472;28;20195;-68
2022/09/15 06:09:58;;;;;;;9.17;4.20;;;13.20;99.90;;;;;;5033217;28;20294;-68
2022/09/15 06:12:23;;;;;;;8.67;4.13;;;13.20;99.90;;;;;;5026510;28;20272;-68
2022/09/15 06:14:49;;;;;;;8.03;4.67;;;13.20;99.90;;;;;;5020317;28;20424;-66
2022/09/15 06:17:18;;;;;;;5.90;4.83;;;13.30;99.90;;;;;;5015718;28;20207;-66
2022/09/15 06:19:44;;;;;;;8.10;4.80;;;13.30;99.90;;;;;;5021383;28;20191;-66
2022/09/15 06:22:10;;;;;;;14.90;4.53;;;13.30;99.90;;;;;;5017036;28;20239;-66
2022/09/15 06:24:36;;;;;;;6.30;4.20;;;13.40;99.90;;;;;;5017211;28;20199;-67
2022/09/15 06:27:01;;;;;;;10.03;4.40;;;13.50;99.90;;;;;;5016424;28;20535;-66
2022/09/15 06:29:27;;;;;;;6.17;4.30;;;13.70;99.90;;;;;;5014950;28;20192;-66
2022/09/15 06:31:53;;;;;;;7.23;4.20;;;13.80;99.90;;;;;;5014346;28;20206;-66
2022/09/15 06:34:19;;;;;;;5.20;4.47;;;13.80;99.90;;;;;;5016055;28;20268;-65
2022/09/15 06:36:44;;;;;;;6.17;3.90;;;13.80;99.90;;;;;;5017131;28;21045;-66
2022/09/15 06:39:10;;;;;;;9.50;3.83;;;13.90;99.90;;;;;;5021202;28;20192;-65
2022/09/15 06:41:35;;;;;;;6.77;4.20;;;13.90;99.90;;;;;;5015649;28;20250;-66
2022/09/15 06:44:04;;;;;;;7.47;4.17;;;13.90;99.90;;;;;;5022159;28;20189;-66
2022/09/15 06:46:29;;;;;;;6.83;4.27;;;13.90;99.90;;;;;;5014639;28;20290;-67
2022/09/15 06:48:55;;;;;;;6.27;3.90;;;13.90;99.90;;;;;;5019141;28;20730;-67
2022/09/15 06:51:23;;;;;;;7.70;4.10;;;14.00;99.90;;;;;;5014817;28;20236;-66
2022/09/15 06:53:49;;;;;;;9.90;3.90;;;14.10;99.90;;;;;;5021533;28;20213;-68
2022/09/15 06:56:18;;;;;;;9.53;4.10;;;14.10;99.90;;;;;;5017009;28;20210;-68
2022/09/15 06:58:44;;;;;;;10.30;4.00;;;14.10;99.90;;;;;;5020008;28;20199;-69
2022/09/15 07:01:12;;;;;;;9.90;3.93;;;14.10;99.90;;;;;;5017368;28;20269;-68
2022/09/15 07:03:40;;;;;;;5.80;3.77;;;14.10;99.90;;;;;;5018605;28;20200;-68
2022/09/15 07:06:06;;;;;;;8.97;4.47;;;14.10;99.90;;;;;;5021155;28;20543;-68
2022/09/15 07:08:32;;;;;;;6.77;3.60;;;14.10;99.90;;;;;;5020075;28;20213;-65
2022/09/15 07:10:58;;;;;;;5.47;4.10;;;14.20;99.90;;;;;;5014057;28;20670;-65
2022/09/15 07:13:24;;;;;;;6.73;4.60;;;14.20;99.90;;;;;;5018518;28;20191;-65
2022/09/15 07:15:51;;;;;;;6.47;4.07;;;14.20;99.90;;;;;;5017474;28;20845;-65
2022/09/15 07:18:17;;;;;;;5.23;3.70;;;14.20;99.90;;;;;;5031171;28;20246;-65
2022/09/15 07:20:42;;;;;;;10.57;5.47;;;14.30;99.90;;;;;;5025515;28;20205;-65
2022/09/15 07:23:08;;;;;;;7.37;4.23;;;14.30;99.90;;;;;;5027237;28;20199;-65
2022/09/15 07:25:33;;;;;;;5.80;4.20;;;14.40;99.90;;;;;;5027897;28;20207;-65
2022/09/15 07:27:59;;;;;;;9.07;4.60;;;14.50;99.90;;;;;;5029080;28;20256;-65
2022/09/15 07:30:24;;;;;;;4.60;4.13;;;14.60;99.90;;;;;;5023765;28;20261;-65
2022/09/15 07:32:51;;;;;;;8.40;3.90;;;14.60;99.90;;;;;;5025994;28;20184;-66
2022/09/15 07:35:16;;;;;;;7.77;4.30;;;14.60;99.90;;;;;;5035726;28;20202;-65
2022/09/15 07:37:43;;;;;;;4.50;3.90;;;14.60;99.90;;;;;;5012439;28;20198;-66
2022/09/15 07:40:10;;;;;;;8.27;3.60;;;14.60;99.90;;;;;;5034687;28;20207;-66
2022/09/15 07:42:35;;;;;;;7.30;3.77;;;14.60;99.90;;;;;;5025054;28;20534;-65
2022/09/15 07:45:01;;;;;;;6.93;3.50;;;14.70;99.90;;;;;;5034766;28;20207;-65
2022/09/15 07:47:26;;;;;;;6.40;3.07;;;14.80;99.90;;;;;;5017103;28;20184;-66
2022/09/15 07:49:52;;;;;;;7.17;3.90;;;15.00;99.90;;;;;;5024426;28;20223;-66
2022/09/15 07:52:18;;;;;;;5.20;3.70;;;15.00;99.90;;;;;;5015650;28;20239;-66
2022/09/15 07:54:43;;;;;;;5.77;3.53;;;15.10;99.90;;;;;;5028451;28;20203;-67
2022/09/15 07:57:09;;;;;;;12.13;4.20;;;15.10;99.90;;;;;;5024869;28;20641;-66
2022/09/15 07:59:34;;;;;;;4.97;3.77;;;15.10;99.90;;;;;;5042902;28;20584;-66
2022/09/15 08:02:00;;;;;;;3.30;3.00;;;15.20;99.90;;;;;;5023508;28;20235;-67
2022/09/15 08:04:25;;;;;;;6.73;3.53;;;15.30;99.90;;;;;;5029190;28;20321;-66
2022/09/15 08:06:51;;;;;;;5.13;3.20;;;15.30;99.90;;;;;;5017643;28;20208;-65
2022/09/15 08:09:17;;;;;;;6.87;3.40;;;15.40;99.90;;;;;;5034338;28;20206;-66
2022/09/15 08:11:43;;;;;;;5.77;3.40;;;15.50;99.90;;;;;;5025740;28;20227;-65
2022/09/15 08:14:08;;;;;;;4.60;2.80;;;15.50;99.90;;;;;;5042016;28;20218;-65
2022/09/15 08:16:34;;;;;;;3.33;2.50;;;15.70;99.90;;;;;;5022614;28;20204;-65
2022/09/15 08:19:00;;;;;;;3.30;3.00;;;15.80;99.90;;;;;;5031005;28;20672;-65
2022/09/15 08:21:26;;;;;;;8.30;3.27;;;15.90;99.90;;;;;;5030920;28;20200;-65
2022/09/15 08:23:57;;;;;;;3.93;2.53;;;16.00;99.90;;;;;;5041939;28;20207;-66
2022/09/15 08:26:24;;;;;;;7.13;2.70;;;16.00;99.90;;;;;;5022674;28;20207;-66
2022/09/15 08:28:49;;;;;;;5.33;3.00;;;16.10;99.90;;;;;;5027961;28;20196;-65
2022/09/15 08:31:16;;;;;;;4.27;2.50;;;16.20;99.90;;;;;;5031849;28;20709;-66
2022/09/15 08:33:46;;;;;;;4.73;2.40;;;16.10;99.90;;;;;;5038732;28;20711;-65
2022/09/15 08:36:12;;;;;;;4.33;2.23;;;16.10;99.90;;;;;;5018483;28;20575;-65
2022/09/15 08:38:43;;;;;;;4.27;2.17;;;16.20;99.90;;;;;;5042762;28;20198;-65
2022/09/15 08:41:24;;;;;;;9.77;3.27;;;16.30;99.90;;;;;;5033909;28;20578;-65
2022/09/15 08:43:58;;;;;;;6.80;2.60;;;16.30;99.90;;;;;;5017939;28;20184;-65
2022/09/15 08:46:33;;;;;;;5.73;2.43;;;16.20;99.90;;;;;;5020331;28;20242;-65
2022/09/15 08:49:06;;;;;;;4.00;2.53;;;16.30;99.90;;;;;;5031109;28;20672;-65
2022/09/15 08:51:45;;;;;;;8.27;2.07;;;16.30;99.90;;;;;;5018247;28;20703;-65
2022/09/15 08:54:19;;;;;;;4.63;2.90;;;16.20;99.90;;;;;;5027621;28;20195;-66
2022/09/15 08:56:44;;;;;;;3.80;1.93;;;16.30;99.90;;;;;;5022490;28;20209;-68
2022/09/15 08:59:14;;;;;;;2.77;1.90;;;16.20;99.90;;;;;;5042825;28;20207;-68
2022/09/15 09:01:50;;;;;;;5.43;2.40;;;16.20;99.90;;;;;;5028604;28;20577;-67
2022/09/15 09:04:38;;;;;;;7.57;2.83;;;16.30;99.90;;;;;;5021097;28;20195;-65
2022/09/15 09:07:25;;;;;;;5.03;2.07;;;16.40;99.90;;;;;;5014285;28;20204;-66
2022/09/15 09:10:24;;;;;;;7.23;2.57;;;16.60;99.90;;;;;;5019441;28;20199;-66
2022/09/15 09:13:01;;;;;;;4.27;2.40;;;16.60;99.90;;;;;;5014165;28;20180;-67
2022/09/15 09:15:47;;;;;;;5.60;2.70;;;16.70;99.90;;;;;;5024580;28;20271;-67
2022/09/15 09:18:38;;;;;;;3.33;2.00;;;16.70;99.90;;;;;;5012337;28;20178;-67
2022/09/15 09:21:10;;;;;;;3.93;2.00;;;16.70;99.90;;;;;;5021669;28;20215;-67
2022/09/15 09:23:44;;;;;;;4.03;2.10;;;16.70;99.90;;;;;;5023190;28;20191;-66
2022/09/15 09:26:11;;;;;;;4.30;2.77;;;16.70;99.90;;;;;;5021636;28;20215;-67
2022/09/15 09:28:45;;;;;;;4.80;2.00;;;16.80;99.90;;;;;;5034907;28;20191;-67
2022/09/15 09:31:19;;;;;;;4.30;1.93;;;17.00;99.90;;;;;;5021965;28;20219;-67
2022/09/15 09:34:00;;;;;;;3.33;1.50;;;16.90;99.90;;;;;;5012482;28;20650;-67
2022/09/15 09:36:26;;;;;;;3.20;1.43;;;17.00;99.90;;;;;;5020008;28;20290;-67
2022/09/15 09:38:54;;;;;;;4.40;1.50;;;17.10;99.90;;;;;;5027967;28;20286;-67
2022/09/15 09:41:24;;;;;;;5.83;1.67;;;17.10;99.90;;;;;;5030493;28;20299;-67
2022/09/15 09:43:52;;;;;;;2.90;1.53;;;17.20;99.90;;;;;;5021463;28;20195;-67
2022/09/15 09:46:18;;;;;;;2.37;1.33;;;17.20;99.90;;;;;;5032035;28;20204;-66
2022/09/15 09:48:53;;;;;;;3.27;1.40;;;17.00;99.90;;;;;;5036634;28;20211;-66
2022/09/15 09:51:38;;;;;;;4.20;1.57;;;17.00;99.90;;;;;;5016037;28;20226;-66
2022/09/15 09:54:15;;;;;;;4.33;1.73;;;17.10;99.90;;;;;;5026957;28;20314;-66
2022/09/15 09:56:42;;;;;;;3.53;1.53;;;17.20;99.90;;;;;;5019257;28;20215;-66
2022/09/15 09:59:37;;;;;;;4.27;1.83;;;17.50;99.90;;;;;;5038085;28;20200;-65
2022/09/15 10:02:09;;;;;;;5.43;1.67;;;18.00;99.90;;;;;;5020648;28;20300;-65
2022/09/15 10:04:39;;;;;;;1.87;1.20;;;18.30;99.90;;;;;;5015122;28;20199;-65
2022/09/15 10:07:05;;;;;;;1.73;1.10;;;18.50;99.90;;;;;;5024073;28;21012;-66
2022/09/15 10:09:31;;;;;;;3.13;0.97;;;18.40;99.90;;;;;;5038448;28;20196;-66
2022/09/15 10:12:00;;;;;;;4.13;1.57;;;18.50;99.90;;;;;;5022531;28;20361;-66
2022/09/15 10:14:36;;;;;;;3.03;1.30;;;18.60;99.90;;;;;;5034919;28;20187;-66
2022/09/15 10:17:15;;;;;;;3.57;1.37;;;18.60;99.90;;;;;;5013674;28;20794;-65
2022/09/15 10:19:55;;;;;;;3.83;1.47;;;18.40;99.90;;;;;;5019138;28;20262;-65
2022/09/15 10:22:39;;;;;;;1.43;1.10;;;18.20;99.90;;;;;;5013572;28;20204;-66
2022/09/15 10:25:19;;;;;;;4.60;1.70;;;18.30;99.90;;;;;;5039906;28;20191;-66
2022/09/15 10:28:12;;;;;;;4.10;1.30;;;18.20;99.90;;;;;;5012400;28;20612;-66
2022/09/15 10:30:57;;;;;;;2.97;1.37;;;18.20;99.90;;;;;;5012462;28;20212;-66
2022/09/15 10:33:27;;;;;;;4.17;1.07;;;18.30;99.90;;;;;;5024041;28;20337;-66
2022/09/15 10:35:58;;;;;;;4.20;1.37;;;18.50;99.90;;;;;;5010401;28;20265;-66
2022/09/15 10:38:48;;;;;;;6.20;1.47;;;18.70;99.90;;;;;;5023862;28;20191;-66
2022/09/15 10:41:20;;;;;;;2.97;1.37;;;18.90;99.90;;;;;;5020714;28;20732;-66
2022/09/15 10:44:04;;;;;;;3.13;1.20;;;18.90;99.90;;;;;;5023109;28;20611;-66
2022/09/15 10:46:34;;;;;;;4.57;2.23;;;18.50;99.90;;;;;;5029186;28;20214;-66
2022/09/15 10:49:12;;;;;;;2.87;1.27;;;18.30;99.90;;;;;;5041593;28;20196;-66
2022/09/15 10:52:09;;;;;;;3.70;1.50;;;18.00;99.90;;;;;;5019691;28;20235;-66
2022/09/15 10:55:15;;;;;;;1.57;0.90;;;17.90;99.90;;;;;;5021949;28;20215;-66
2022/09/15 10:58:10;;;;;;;5.80;1.40;;;17.80;99.90;;;;;;5025833;28;20187;-66
2022/09/15 11:01:02;;;;;;;4.30;1.30;;;17.70;99.90;;;;;;5015646;28;20427;-66
2022/09/15 11:03:50;;;;;;;3.97;1.30;;;17.70;99.90;;;;;;5019285;28;20262;-66
2022/09/15 11:06:57;;;;;;;2.77;1.53;;;17.70;99.90;;;;;;5021783;28;20203;-66
2022/09/15 11:09:27;;;;;;;3.73;1.27;;;17.70;99.90;;;;;;5030634;28;20195;-66
2022/09/15 11:12:18;;;;;;;2.27;1.27;;;17.70;99.90;;;;;;5029450;28;20220;-66
2022/09/15 11:15:10;;;;;;;3.97;1.40;;;17.80;99.90;;;;;;5019675;28;20193;-66
2022/09/15 11:17:58;;;;;;;4.03;1.40;;;17.90;99.90;;;;;;5009362;28;20253;-66
2022/09/15 11:20:52;;;;;;;3.77;1.10;;;18.10;99.90;;;;;;5004666;28;20299;-66
2022/09/15 11:23:32;;;;;;;4.93;1.20;;;18.30;99.90;;;;;;5011883;28;20188;-66
2022/09/15 11:26:37;;;;;;;4.07;1.17;;;18.50;99.90;;;;;;5021977;28;20209;-66
2022/09/15 11:29:12;;;;;;;3.63;1.43;;;18.70;99.90;;;;;;5033067;28;20234;-67
2022/09/15 11:31:42;;;;;;;3.87;1.47;;;19.00;99.90;;;;;;5021754;28;20723;-69
2022/09/15 11:34:22;;;;;;;4.20;1.37;;;19.00;99.90;;;;;;5025295;28;20223;-69
2022/09/15 11:37:00;;;;;;;2.93;1.17;;;18.70;99.90;;;;;;5017362;28;20203;-70
2022/09/15 11:39:33;;;;;;;2.43;1.10;;;18.40;99.90;;;;;;5015096;28;20192;-71
2022/09/15 11:42:24;;;;;;;2.47;1.23;;;18.20;99.90;;;;;;5019764;28;20258;-71
2022/09/15 11:44:49;;;;;;;3.47;1.03;;;18.10;99.90;;;;;;5016164;28;20176;-70
2022/09/15 11:47:26;;;;;;;2.50;1.03;;;18.10;99.90;;;;;;5016123;28;20206;-70
2022/09/15 11:50:19;;;;;;;3.67;1.40;;;18.10;99.90;;;;;;5020078;28;20305;-69
2022/09/15 11:52:57;;;;;;;2.80;0.97;;;18.00;99.90;;;;;;5011317;28;20212;-69
2022/09/15 11:56:02;;;;;;;1.93;0.90;;;17.90;99.90;;;;;;5015220;28;20268;-70
2022/09/15 11:58:54;;;;;;;4.27;1.47;;;18.00;99.90;;;;;;5020152;28;20225;-70
2022/09/15 12:01:24;;;;;;;2.83;1.00;;;18.20;99.90;;;;;;5020742;28;20617;-72
2022/09/15 12:04:09;;;;;;;2.50;1.00;;;18.50;99.90;;;;;;5015304;28;20191;-68
2022/09/15 12:06:53;;;;;;;2.17;1.30;;;18.70;99.80;;;;;;5022466;28;20741;-78
2022/09/15 12:09:20;;;;;;;4.77;1.40;;;18.60;99.90;;;;;;5022373;28;20218;-67
2022/09/15 12:11:47;;;;;;;2.83;1.00;;;18.50;99.90;;;;;;5030321;28;20282;-80
2022/09/15 12:14:25;;;;;;;4.40;1.03;;;18.10;99.90;;;;;;5030286;28;20202;-84
2022/09/15 12:16:51;;;;;;;3.07;1.03;;;18.00;99.90;;;;;;5015508;28;20799;-66
2022/09/15 12:19:32;;;;;;;8.33;1.50;;;17.80;99.90;;;;;;5016789;28;20196;-66
2022/09/15 12:22:18;;;;;;;3.53;2.00;;;17.60;99.90;;;;;;5021590;28;20272;-66
2022/09/15 12:25:29;;;;;;;5.83;1.60;;;17.80;99.90;;;;;;5016441;28;20290;-66
2022/09/15 12:28:22;;;;;;;3.30;1.70;;;17.90;99.90;;;;;;5019355;28;20232;-68
2022/09/15 12:31:09;;;;;;;3.47;1.60;;;18.20;99.90;;;;;;5019934;28;20676;-65
2022/09/15 12:33:41;;;;;;;3.03;1.17;;;18.40;99.90;;;;;;5015743;28;20275;-65
2022/09/15 12:36:40;;;;;;;5.17;1.40;;;18.90;99.90;;;;;;5044921;28;20226;-65
2022/09/15 12:39:30;;;;;;;6.33;1.80;;;19.30;99.80;;;;;;5023696;28;20241;-65
2022/09/15 12:41:58;;;;;;;5.60;1.73;;;19.90;99.20;;;;;;5028232;28;20281;-65
2022/09/15 12:44:33;;;;;;;4.63;1.57;;;19.80;97.70;;;;;;5035963;28;20230;-66
2022/09/15 12:47:01;;;;;;;5.23;2.13;;;19.60;97.90;;;;;;5011321;28;20211;-65
2022/09/15 12:49:33;;;;;;;1.93;1.37;;;19.20;98.60;;;;;;5032778;28;20590;-65
2022/09/15 12:52:02;;;;;;;1.03;0.93;;;18.90;98.30;;;;;;5027559;28;20302;-84
2022/09/15 12:54:32;;;;;;;3.83;1.27;;;18.80;98.20;;;;;;5021236;28;20186;-68
2022/09/15 12:56:58;;;;;;;2.37;1.07;;;18.70;98.10;;;;;;5016997;28;20200;-70
2022/09/15 12:59:26;;;;;;;3.30;1.10;;;18.80;98.20;;;;;;5021138;28;20218;-67
2022/09/15 13:01:54;;;;;;;8.70;1.77;;;19.20;97.40;;;;;;5026271;28;20212;-66
2022/09/15 13:04:52;;;;;;;1.63;0.90;;;19.70;97.40;;;;;;5036385;28;20257;-67
2022/09/15 13:07:18;;;;;;;2.33;0.97;;;20.50;95.50;;;;;;5022555;28;20265;-67
2022/09/15 13:09:54;;;;;;;2.03;1.00;;;21.40;94.70;;;;;;5026376;28;20207;-64
2022/09/15 13:12:22;;;;;;;4.70;0.93;;;22.10;94.00;;;;;;5019167;28;20662;-67